Time;durP1;ratioP1;P1;durP2;ratioP2;P2;SDS_P1;SDS_P2;PMS_P1;PMS_P2;Temp;Humidity;BMP_temperature;BMP_pressure;BME280_temperature;BME280_humidity;BME280_pressure;Samples;Min_cycle;Max_cycle;Signal;HPM_P1;HPM_P2
2023/04/09 00:01:23;;;;;;;23.43;17.57;;;7.30;99.90;;;;;;6080184;23;20199;-73
2023/04/09 00:03:49;;;;;;;25.50;21.13;;;7.30;99.90;;;;;;6078592;23;20162;-73
2023/04/09 00:06:15;;;;;;;29.60;22.63;;;7.30;99.90;;;;;;6092449;23;20379;-71
2023/04/09 00:08:41;;;;;;;27.13;22.57;;;7.30;99.90;;;;;;6153159;23;20147;-71
2023/04/09 00:11:07;;;;;;;30.37;23.83;;;7.30;99.90;;;;;;6117314;23;20382;-71
2023/04/09 00:13:32;;;;;;;35.20;26.73;;;7.30;99.90;;;;;;6115190;23;20466;-73
2023/04/09 00:15:58;;;;;;;28.60;23.20;;;7.40;99.90;;;;;;6093573;23;20175;-71
2023/04/09 00:18:24;;;;;;;29.87;23.07;;;7.30;99.90;;;;;;6128439;23;20171;-72
2023/04/09 00:20:50;;;;;;;34.07;26.20;;;7.40;99.90;;;;;;6093452;23;20177;-72
2023/04/09 00:23:16;;;;;;;32.03;24.00;;;7.40;99.90;;;;;;6094550;23;20176;-73
2023/04/09 00:25:42;;;;;;;29.50;23.83;;;7.30;99.90;;;;;;6128158;23;20372;-71
2023/04/09 00:28:08;;;;;;;29.93;23.40;;;7.30;99.90;;;;;;6101017;23;20136;-75
2023/04/09 00:30:33;;;;;;;34.53;25.30;;;7.40;99.90;;;;;;6117241;23;20435;-72
2023/04/09 00:33:00;;;;;;;28.17;23.67;;;7.40;99.90;;;;;;6118201;23;20607;-73
2023/04/09 00:35:26;;;;;;;28.00;21.17;;;7.40;99.90;;;;;;6068435;23;20156;-72
2023/04/09 00:37:51;;;;;;;32.20;24.10;;;7.40;99.90;;;;;;6152369;23;20387;-73
2023/04/09 00:40:17;;;;;;;31.03;22.80;;;7.30;99.90;;;;;;6094711;23;20292;-72
2023/04/09 00:42:43;;;;;;;29.73;23.23;;;7.30;99.90;;;;;;6096973;23;20187;-73
2023/04/09 00:45:09;;;;;;;26.63;18.80;;;7.30;99.90;;;;;;6117746;23;20148;-70
2023/04/09 00:47:35;;;;;;;36.37;22.73;;;7.20;99.90;;;;;;6119599;23;20375;-73
2023/04/09 00:50:02;;;;;;;31.27;23.30;;;7.30;99.90;;;;;;6095492;23;20379;-72
2023/04/09 00:52:30;;;;;;;31.93;22.40;;;7.30;99.90;;;;;;6093792;23;20403;-73
2023/04/09 00:54:58;;;;;;;30.13;21.80;;;7.20;99.90;;;;;;6091049;23;20376;-73
2023/04/09 00:57:25;;;;;;;26.70;20.93;;;7.30;99.90;;;;;;6114877;23;20446;-70
2023/04/09 00:59:50;;;;;;;29.47;21.17;;;7.30;99.90;;;;;;6091615;23;20426;-70
2023/04/09 01:02:16;;;;;;;23.43;19.10;;;7.20;99.90;;;;;;6145569;23;20403;-70
2023/04/09 01:04:42;;;;;;;30.30;21.30;;;7.20;99.90;;;;;;6129226;23;20133;-73
2023/04/09 01:07:27;;;;;;;30.23;22.03;;;7.20;99.90;;;;;;6112966;23;20406;-71
2023/04/09 01:09:56;;;;;;;22.80;18.40;;;7.10;99.90;;;;;;6089824;23;20797;-71
2023/04/09 01:12:31;;;;;;;28.80;21.40;;;7.10;99.90;;;;;;6151392;23;20486;-71
2023/04/09 01:15:02;;;;;;;27.80;20.67;;;7.10;99.90;;;;;;6090093;23;20376;-70
2023/04/09 01:17:39;;;;;;;31.07;24.07;;;7.00;99.90;;;;;;6117376;23;20380;-69
2023/04/09 01:20:37;;;;;;;29.70;22.90;;;7.00;99.90;;;;;;6117395;23;20407;-70
2023/04/09 01:23:43;;;;;;;29.10;23.37;;;7.00;99.90;;;;;;6102105;23;20407;-70
2023/04/09 01:26:30;;;;;;;26.23;19.43;;;7.00;99.90;;;;;;6091000;23;20387;-71
2023/04/09 01:28:58;;;;;;;24.40;19.17;;;6.90;99.90;;;;;;6115016;23;20383;-70
2023/04/09 01:31:35;;;;;;;30.47;22.47;;;6.90;99.90;;;;;;6122568;23;20415;-70
2023/04/09 01:34:02;;;;;;;25.73;20.97;;;6.90;99.90;;;;;;6092914;23;20387;-72
2023/04/09 01:36:30;;;;;;;31.10;22.70;;;6.90;99.90;;;;;;6092975;23;20436;-72
2023/04/09 01:38:59;;;;;;;32.87;24.07;;;6.90;99.90;;;;;;6083508;23;20804;-70
2023/04/09 01:41:26;;;;;;;30.80;22.93;;;6.80;99.90;;;;;;6059005;23;20429;-70
2023/04/09 01:43:54;;;;;;;28.00;20.93;;;6.90;99.90;;;;;;6092326;23;20385;-70
2023/04/09 01:46:21;;;;;;;23.53;19.70;;;6.90;99.90;;;;;;6054636;23;20381;-71
2023/04/09 01:48:48;;;;;;;28.53;20.73;;;6.80;99.90;;;;;;6078717;23;20440;-72
2023/04/09 01:51:14;;;;;;;31.73;22.50;;;6.90;99.90;;;;;;6055464;23;20377;-70
2023/04/09 01:53:41;;;;;;;27.60;21.33;;;6.90;99.90;;;;;;6065712;23;20842;-70
2023/04/09 01:56:08;;;;;;;31.13;22.67;;;6.90;99.90;;;;;;6054010;23;20832;-72
2023/04/09 01:58:34;;;;;;;28.03;20.80;;;7.00;99.90;;;;;;6032096;23;20386;-72
2023/04/09 02:01:26;;;;;;;25.87;21.33;;;7.00;99.90;;;;;;6055531;23;20425;-71
2023/04/09 02:03:55;;;;;;;28.30;20.50;;;7.10;99.90;;;;;;6067395;23;20389;-72
2023/04/09 02:06:43;;;;;;;26.23;18.63;;;7.10;99.90;;;;;;6034610;23;20509;-72
2023/04/09 02:09:11;;;;;;;28.70;20.90;;;7.10;99.90;;;;;;6067625;23;20384;-73
2023/04/09 02:11:40;;;;;;;22.47;18.17;;;7.10;99.90;;;;;;6139435;23;20405;-71
2023/04/09 02:14:07;;;;;;;27.40;20.20;;;7.10;99.90;;;;;;6116870;23;20375;-72
2023/04/09 02:16:33;;;;;;;29.60;20.47;;;7.10;99.90;;;;;;6117551;23;20405;-71
2023/04/09 02:19:00;;;;;;;24.80;21.07;;;7.10;99.90;;;;;;6153481;23;20371;-70
2023/04/09 02:21:27;;;;;;;26.80;19.70;;;7.10;99.90;;;;;;6152197;23;20230;-70
2023/04/09 02:23:54;;;;;;;28.93;20.70;;;7.10;99.90;;;;;;6126013;23;20467;-70
2023/04/09 02:26:20;;;;;;;24.50;19.23;;;7.10;99.90;;;;;;6113123;23;20410;-70
2023/04/09 02:28:46;;;;;;;23.40;18.03;;;7.00;99.90;;;;;;6088600;23;20406;-71
2023/04/09 02:31:12;;;;;;;22.30;17.90;;;7.00;99.90;;;;;;6114304;23;20400;-70
2023/04/09 02:33:38;;;;;;;25.43;16.70;;;6.90;99.90;;;;;;6111288;23;20498;-69
2023/04/09 02:36:04;;;;;;;21.43;15.93;;;6.90;99.90;;;;;;6113422;23;20147;-71
2023/04/09 02:38:30;;;;;;;23.27;18.73;;;6.90;99.90;;;;;;6122009;23;20207;-71
2023/04/09 02:40:55;;;;;;;20.70;16.43;;;6.80;99.90;;;;;;6121186;23;20403;-69
2023/04/09 02:43:21;;;;;;;22.73;18.43;;;6.80;99.90;;;;;;6111412;23;20263;-71
2023/04/09 02:45:47;;;;;;;24.10;17.90;;;6.80;99.90;;;;;;6112740;23;20144;-69
2023/04/09 02:48:12;;;;;;;22.43;16.20;;;6.80;99.90;;;;;;6148566;23;20371;-72
2023/04/09 02:50:39;;;;;;;24.80;18.27;;;6.80;99.90;;;;;;6087796;23;20144;-71
2023/04/09 02:53:04;;;;;;;23.00;17.43;;;6.80;99.90;;;;;;6109666;23;20487;-70
2023/04/09 02:55:30;;;;;;;20.87;17.10;;;6.80;99.90;;;;;;6109235;23;20171;-70
2023/04/09 02:57:56;;;;;;;20.77;15.20;;;6.80;99.90;;;;;;6087123;23;20208;-72
2023/04/09 03:00:21;;;;;;;21.33;16.47;;;6.80;99.90;;;;;;6108957;23;20199;-69
2023/04/09 03:02:47;;;;;;;21.97;16.80;;;6.80;99.90;;;;;;6110712;23;20246;-70
2023/04/09 03:05:13;;;;;;;22.40;16.67;;;6.80;99.90;;;;;;6120426;23;20132;-70
2023/04/09 03:07:39;;;;;;;23.83;17.47;;;6.80;99.90;;;;;;6088061;23;20145;-70
2023/04/09 03:10:04;;;;;;;20.00;15.90;;;6.80;99.90;;;;;;6111619;23;20144;-70
2023/04/09 03:12:30;;;;;;;22.90;17.30;;;6.70;99.90;;;;;;6122324;23;20291;-72
2023/04/09 03:14:56;;;;;;;23.77;18.13;;;6.70;99.90;;;;;;6150297;23;20379;-70
2023/04/09 03:17:24;;;;;;;22.03;16.30;;;6.60;99.90;;;;;;6110285;23;20172;-70
2023/04/09 03:19:50;;;;;;;19.83;14.53;;;6.60;99.90;;;;;;6109913;23;20186;-70
2023/04/09 03:22:16;;;;;;;19.20;14.13;;;6.50;99.90;;;;;;6120724;23;20736;-71
2023/04/09 03:24:41;;;;;;;20.63;16.03;;;6.40;99.90;;;;;;6121481;23;20423;-73
2023/04/09 03:27:07;;;;;;;25.03;15.90;;;6.30;99.90;;;;;;6086430;23;20140;-71
2023/04/09 03:29:33;;;;;;;19.93;14.60;;;6.40;99.90;;;;;;6122720;23;20203;-72
2023/04/09 03:31:58;;;;;;;20.57;14.33;;;6.30;99.90;;;;;;6142843;23;20235;-72
2023/04/09 03:34:24;;;;;;;22.60;16.40;;;6.20;99.90;;;;;;6114472;23;20384;-71
2023/04/09 03:36:53;;;;;;;18.33;14.20;;;6.10;99.90;;;;;;6112374;23;20144;-71
2023/04/09 03:39:29;;;;;;;26.30;17.00;;;6.10;99.90;;;;;;6088235;23;20418;-70
2023/04/09 03:41:57;;;;;;;22.53;16.97;;;6.10;99.90;;;;;;6145384;23;20411;-71
2023/04/09 03:44:24;;;;;;;21.37;16.00;;;6.10;99.90;;;;;;6111113;23;20383;-70
2023/04/09 03:47:06;;;;;;;20.67;16.23;;;6.10;99.90;;;;;;6110980;23;20380;-72
2023/04/09 03:49:35;;;;;;;23.67;16.93;;;6.00;99.90;;;;;;6119961;23;20758;-70
2023/04/09 03:52:08;;;;;;;27.30;17.63;;;6.00;99.90;;;;;;6119738;23;20406;-71
2023/04/09 03:54:37;;;;;;;23.10;14.80;;;6.00;99.90;;;;;;6096655;23;20800;-72
2023/04/09 03:57:08;;;;;;;21.70;16.53;;;6.00;99.90;;;;;;6115345;23;20391;-70
2023/04/09 03:59:37;;;;;;;21.03;16.87;;;6.00;99.90;;;;;;6106707;23;20506;-71
2023/04/09 04:02:03;;;;;;;24.37;17.87;;;5.90;99.90;;;;;;6106185;23;20419;-71
2023/04/09 04:04:31;;;;;;;23.10;16.13;;;5.90;99.90;;;;;;6108474;23;20206;-72
2023/04/09 04:06:57;;;;;;;25.20;15.47;;;5.90;99.90;;;;;;6110855;23;20368;-71
2023/04/09 04:09:27;;;;;;;22.03;14.80;;;5.90;99.90;;;;;;6107942;23;20383;-70
2023/04/09 04:12:03;;;;;;;21.30;14.83;;;5.80;99.90;;;;;;6106472;23;20887;-72
2023/04/09 04:14:57;;;;;;;19.40;14.60;;;5.80;99.90;;;;;;6089040;23;20524;-69
2023/04/09 04:17:30;;;;;;;21.63;16.07;;;5.80;99.90;;;;;;6106984;23;20440;-70
2023/04/09 04:19:57;;;;;;;18.47;14.23;;;5.80;99.90;;;;;;6107041;23;20439;-71
2023/04/09 04:22:22;;;;;;;21.00;14.97;;;5.80;99.90;;;;;;6083733;23;20423;-69
2023/04/09 04:24:51;;;;;;;19.23;14.70;;;5.80;99.90;;;;;;6083854;23;20167;-70
2023/04/09 04:27:19;;;;;;;22.90;16.13;;;5.80;99.90;;;;;;6107700;23;20383;-70
2023/04/09 04:29:45;;;;;;;22.27;15.13;;;5.70;99.90;;;;;;6106768;23;20418;-70
2023/04/09 04:32:32;;;;;;;20.43;15.00;;;5.70;99.90;;;;;;6134485;23;20488;-69
2023/04/09 04:35:02;;;;;;;22.33;16.60;;;5.70;99.90;;;;;;6109824;23;20399;-72
2023/04/09 04:37:27;;;;;;;22.23;16.20;;;5.60;99.90;;;;;;6110761;23;20447;-69
2023/04/09 04:39:57;;;;;;;23.47;15.27;;;5.60;99.90;;;;;;6109858;23;20167;-71
2023/04/09 04:42:22;;;;;;;18.97;14.90;;;5.60;99.90;;;;;;6111627;23;20424;-70
2023/04/09 04:44:48;;;;;;;24.40;15.37;;;5.50;99.90;;;;;;6087401;23;20152;-70
2023/04/09 04:47:46;;;;;;;17.53;13.80;;;5.50;99.90;;;;;;6122794;23;20376;-71
2023/04/09 04:50:13;;;;;;;20.70;14.83;;;5.40;99.90;;;;;;6110717;23;20395;-71
2023/04/09 04:52:51;;;;;;;17.17;13.00;;;5.40;99.90;;;;;;6111172;23;20419;-70
2023/04/09 04:55:18;;;;;;;21.80;14.23;;;5.40;99.90;;;;;;6112009;23;20419;-71
2023/04/09 04:57:43;;;;;;;21.00;15.10;;;5.30;99.90;;;;;;6146845;23;20368;-70
2023/04/09 05:00:12;;;;;;;21.40;15.87;;;5.40;99.90;;;;;;6138185;23;20172;-70
2023/04/09 05:02:37;;;;;;;24.73;13.93;;;5.40;99.90;;;;;;6112160;23;20403;-69
2023/04/09 05:05:21;;;;;;;24.17;15.00;;;5.40;99.90;;;;;;6095190;23;20409;-70
2023/04/09 05:07:51;;;;;;;20.23;15.80;;;5.40;99.90;;;;;;6114070;23;20394;-69
2023/04/09 05:10:17;;;;;;;24.70;17.27;;;5.40;99.90;;;;;;6113352;23;20689;-72
2023/04/09 05:12:44;;;;;;;20.50;13.80;;;5.50;99.90;;;;;;6086914;23;20422;-70
2023/04/09 05:15:13;;;;;;;21.80;16.00;;;5.60;99.90;;;;;;6089225;23;20411;-70
2023/04/09 05:17:41;;;;;;;16.53;12.73;;;5.60;99.90;;;;;;6111647;23;20701;-69
2023/04/09 05:20:08;;;;;;;20.97;14.17;;;5.70;99.90;;;;;;6113271;23;20430;-70
2023/04/09 05:22:46;;;;;;;19.30;12.73;;;5.80;99.90;;;;;;6110002;23;20414;-72
2023/04/09 05:25:14;;;;;;;17.80;13.07;;;5.90;99.90;;;;;;6085654;23;20391;-72
2023/04/09 05:27:41;;;;;;;17.67;12.70;;;6.00;99.90;;;;;;6086045;23;20376;-71
2023/04/09 05:30:08;;;;;;;20.27;13.80;;;6.10;99.90;;;;;;6087051;23;20815;-68
2023/04/09 05:32:34;;;;;;;19.17;13.47;;;6.30;99.90;;;;;;6085330;23;20423;-71
2023/04/09 05:34:59;;;;;;;20.87;14.60;;;6.40;99.90;;;;;;6109919;23;20407;-69
2023/04/09 05:37:26;;;;;;;17.17;12.80;;;6.50;99.90;;;;;;6086319;23;20156;-70
2023/04/09 05:39:52;;;;;;;19.30;13.27;;;6.60;99.90;;;;;;6086946;23;20740;-70
2023/04/09 05:42:18;;;;;;;19.30;13.57;;;6.60;99.90;;;;;;6110445;23;20433;-68
2023/04/09 05:45:07;;;;;;;17.40;13.67;;;6.70;99.90;;;;;;6109381;23;20157;-69
2023/04/09 05:47:33;;;;;;;19.70;13.87;;;6.80;99.90;;;;;;6107093;23;20377;-70
2023/04/09 05:50:14;;;;;;;16.43;12.53;;;6.90;99.90;;;;;;6082473;23;20392;-70
2023/04/09 05:52:40;;;;;;;16.60;11.80;;;7.00;99.90;;;;;;6082853;23;20409;-71
2023/04/09 05:55:06;;;;;;;17.50;13.60;;;7.00;99.90;;;;;;6118227;23;20383;-71
2023/04/09 05:57:44;;;;;;;17.97;13.83;;;7.00;99.90;;;;;;6083537;23;20222;-71
2023/04/09 06:00:10;;;;;;;20.00;13.70;;;7.10;99.90;;;;;;6082214;23;20412;-69
2023/04/09 06:02:43;;;;;;;16.50;11.93;;;7.10;99.90;;;;;;6106725;23;20436;-70
2023/04/09 06:05:09;;;;;;;18.83;13.30;;;7.10;99.90;;;;;;6082480;23;20404;-70
2023/04/09 06:07:35;;;;;;;17.97;12.07;;;7.10;99.90;;;;;;6082645;23;20396;-72
2023/04/09 06:10:02;;;;;;;19.97;12.90;;;7.10;99.90;;;;;;6107346;23;20155;-69
2023/04/09 06:12:27;;;;;;;13.87;10.83;;;7.10;99.90;;;;;;6107073;23;20408;-68
2023/04/09 06:14:53;;;;;;;20.03;11.97;;;7.10;99.90;;;;;;6119752;23;20137;-70
2023/04/09 06:17:18;;;;;;;17.77;12.73;;;7.10;99.90;;;;;;6094879;23;20148;-71
2023/04/09 06:19:44;;;;;;;16.73;11.03;;;7.10;99.90;;;;;;6109106;23;20172;-70
2023/04/09 06:22:10;;;;;;;15.63;11.97;;;7.20;99.90;;;;;;6119906;23;20171;-68
2023/04/09 06:24:36;;;;;;;15.93;11.20;;;7.20;99.90;;;;;;6116650;23;20133;-71
2023/04/09 06:27:01;;;;;;;13.33;10.50;;;7.30;99.90;;;;;;6107779;23;20208;-70
2023/04/09 06:29:27;;;;;;;14.63;11.00;;;7.40;99.90;;;;;;6117161;23;20140;-70
2023/04/09 06:31:52;;;;;;;13.80;11.40;;;7.50;99.90;;;;;;6118352;23;20224;-70
2023/04/09 06:34:18;;;;;;;16.87;12.83;;;7.50;99.90;;;;;;6085541;23;20208;-71
2023/04/09 06:36:44;;;;;;;16.53;12.67;;;7.60;99.90;;;;;;6124990;23;20152;-71
2023/04/09 06:39:10;;;;;;;16.83;11.30;;;7.60;99.90;;;;;;6109616;23;20149;-70
2023/04/09 06:41:36;;;;;;;15.37;10.77;;;7.70;99.90;;;;;;6113397;23;20404;-73
2023/04/09 06:44:10;;;;;;;16.57;11.50;;;7.70;99.90;;;;;;6117306;23;20408;-70
2023/04/09 06:46:36;;;;;;;17.17;12.37;;;7.80;99.90;;;;;;6094870;23;20375;-72
2023/04/09 06:49:01;;;;;;;15.20;9.63;;;7.80;99.90;;;;;;6129992;23;20136;-69
2023/04/09 06:51:27;;;;;;;17.73;11.83;;;7.80;99.90;;;;;;6129410;23;20168;-71
2023/04/09 06:53:53;;;;;;;15.47;11.37;;;7.90;99.90;;;;;;6068061;23;20152;-72
2023/04/09 06:56:19;;;;;;;16.13;10.80;;;7.90;99.90;;;;;;6114154;23;20441;-72
2023/04/09 06:58:44;;;;;;;16.73;11.87;;;7.90;99.90;;;;;;6089562;23;20231;-71
2023/04/09 07:01:11;;;;;;;14.50;10.60;;;8.00;99.90;;;;;;6088637;23;20902;-70
2023/04/09 07:03:37;;;;;;;17.50;11.20;;;8.10;99.90;;;;;;6112386;23;20151;-71
2023/04/09 07:06:03;;;;;;;17.50;11.83;;;8.10;99.90;;;;;;6111859;23;20380;-71
2023/04/09 07:08:28;;;;;;;15.60;11.20;;;8.30;99.80;;;;;;6110715;23;20509;-71
2023/04/09 07:10:54;;;;;;;18.43;12.13;;;8.30;99.40;;;;;;6146666;23;20375;-71
2023/04/09 07:13:21;;;;;;;15.93;10.53;;;8.40;99.00;;;;;;6111121;23;20168;-71
2023/04/09 07:15:47;;;;;;;17.40;11.77;;;8.40;98.50;;;;;;6086439;23;20727;-69
2023/04/09 07:18:12;;;;;;;15.03;11.33;;;8.50;98.30;;;;;;6111831;23;20387;-73
2023/04/09 07:20:38;;;;;;;17.67;11.90;;;8.50;97.80;;;;;;6121403;23;20168;-71
2023/04/09 07:23:04;;;;;;;15.87;11.27;;;8.60;96.60;;;;;;6146817;23;20164;-70
2023/04/09 07:25:29;;;;;;;14.23;10.23;;;8.70;96.40;;;;;;6147480;23;20136;-70
2023/04/09 07:27:55;;;;;;;13.53;10.80;;;8.80;95.30;;;;;;6146074;23;20139;-70
2023/04/09 07:30:21;;;;;;;15.97;11.47;;;8.90;95.50;;;;;;6123153;23;20140;-71
2023/04/09 07:32:47;;;;;;;16.30;10.67;;;9.00;94.20;;;;;;6115397;23;20415;-71
2023/04/09 07:35:12;;;;;;;15.30;10.93;;;9.10;93.40;;;;;;6089350;23;20151;-71
2023/04/09 07:37:38;;;;;;;13.60;10.27;;;9.10;93.00;;;;;;6089535;23;20567;-70
2023/04/09 07:40:04;;;;;;;15.43;11.20;;;9.10;93.60;;;;;;6113536;23;20210;-70
2023/04/09 07:42:31;;;;;;;17.10;11.27;;;9.10;92.40;;;;;;6114700;23;20195;-72
2023/04/09 07:44:57;;;;;;;14.50;10.30;;;9.10;91.10;;;;;;6118319;23;20386;-73
2023/04/09 07:47:22;;;;;;;14.93;10.27;;;9.20;92.00;;;;;;6122853;23;20463;-70
2023/04/09 07:49:48;;;;;;;13.27;9.10;;;9.30;91.90;;;;;;6115721;23;20144;-71
2023/04/09 07:52:14;;;;;;;14.33;10.00;;;9.30;91.60;;;;;;6114958;23;20473;-71
2023/04/09 07:54:40;;;;;;;13.20;9.53;;;9.40;91.50;;;;;;6112673;23;20659;-72
2023/04/09 07:57:06;;;;;;;14.13;10.57;;;9.50;90.90;;;;;;6089457;23;20380;-72
2023/04/09 07:59:35;;;;;;;13.20;8.83;;;9.60;90.00;;;;;;6122678;23;20164;-72
2023/04/09 08:02:00;;;;;;;14.20;9.87;;;9.70;89.40;;;;;;6140760;23;20174;-71
2023/04/09 08:04:26;;;;;;;13.20;8.10;;;9.70;89.20;;;;;;6112835;23;20375;-71
2023/04/09 08:06:54;;;;;;;10.50;7.63;;;9.70;89.20;;;;;;6148013;23;20156;-72
2023/04/09 08:09:20;;;;;;;12.30;9.70;;;9.80;89.50;;;;;;6114787;23;20388;-72
2023/04/09 08:11:47;;;;;;;9.10;7.37;;;9.90;87.30;;;;;;6116580;23;20431;-71
2023/04/09 08:14:26;;;;;;;9.77;7.43;;;9.90;88.40;;;;;;6091942;23;20168;-72
2023/04/09 08:16:52;;;;;;;12.83;8.67;;;10.00;85.80;;;;;;6065090;23;20376;-71
2023/04/09 08:19:19;;;;;;;11.57;8.60;;;10.10;85.30;;;;;;6092451;23;20391;-71
2023/04/09 08:21:47;;;;;;;10.60;7.73;;;10.20;83.30;;;;;;6092698;23;20170;-71
2023/04/09 08:24:13;;;;;;;12.20;8.77;;;10.10;80.80;;;;;;6115726;23;20428;-72
2023/04/09 08:26:40;;;;;;;11.17;9.20;;;10.30;79.70;;;;;;6067871;23;20447;-71
2023/04/09 08:29:11;;;;;;;9.53;7.30;;;10.30;79.90;;;;;;6103141;23;20740;-71
2023/04/09 08:31:38;;;;;;;11.60;8.60;;;10.40;78.50;;;;;;6118938;23;20497;-72
2023/04/09 08:34:06;;;;;;;10.50;7.20;;;10.60;76.70;;;;;;6094234;23;20376;-71
2023/04/09 08:36:33;;;;;;;10.03;7.77;;;10.70;75.10;;;;;;6093446;23;20788;-71
2023/04/09 08:38:59;;;;;;;12.23;7.50;;;10.70;74.50;;;;;;6093523;23;20407;-70
2023/04/09 08:41:29;;;;;;;10.53;7.80;;;10.80;74.50;;;;;;6094129;23;20419;-71
2023/04/09 08:43:56;;;;;;;11.80;8.57;;;10.90;73.40;;;;;;6092974;23;20395;-70
2023/04/09 08:46:23;;;;;;;10.00;8.03;;;10.90;70.30;;;;;;6009441;23;20829;-71
2023/04/09 08:48:50;;;;;;;8.80;7.00;;;11.00;69.20;;;;;;6032541;23;20448;-71
2023/04/09 08:51:18;;;;;;;9.80;8.33;;;11.10;68.60;;;;;;6059753;23;20389;-71
2023/04/09 08:54:05;;;;;;;11.40;7.70;;;11.20;64.90;;;;;;6055367;23;20437;-71
2023/04/09 08:56:31;;;;;;;10.83;7.67;;;11.20;65.10;;;;;;6065823;23;20405;-70
2023/04/09 08:58:57;;;;;;;9.43;7.03;;;11.40;62.80;;;;;;6091774;23;20377;-70
2023/04/09 09:01:25;;;;;;;10.40;7.43;;;11.40;61.90;;;;;;6033734;23;20256;-70
2023/04/09 09:04:05;;;;;;;9.13;7.23;;;11.50;61.00;;;;;;6057632;23;20405;-70
2023/04/09 09:06:32;;;;;;;8.60;6.87;;;11.50;59.20;;;;;;6089319;23;20385;-71
2023/04/09 09:09:12;;;;;;;7.87;6.67;;;11.50;59.30;;;;;;6088923;23;20373;-72
2023/04/09 09:11:42;;;;;;;9.47;7.60;;;11.60;59.50;;;;;;6087432;23;20407;-71
2023/04/09 09:14:10;;;;;;;8.03;7.23;;;11.70;58.20;;;;;;6090118;23;20906;-70
2023/04/09 09:16:38;;;;;;;8.90;6.33;;;11.70;55.60;;;;;;6082030;23;20410;-71
2023/04/09 09:19:05;;;;;;;7.30;5.90;;;11.80;55.90;;;;;;6131275;23;20371;-71
2023/04/09 09:21:32;;;;;;;7.20;5.50;;;11.80;54.80;;;;;;6122235;23;20443;-69
2023/04/09 09:23:58;;;;;;;8.47;6.33;;;11.90;54.90;;;;;;6130551;23;20403;-71
2023/04/09 09:26:26;;;;;;;9.23;6.87;;;11.90;55.10;;;;;;6148597;23;20388;-71
2023/04/09 09:28:52;;;;;;;8.43;6.60;;;12.00;54.70;;;;;;6149447;23;20180;-71
2023/04/09 09:31:19;;;;;;;7.60;5.87;;;12.10;54.20;;;;;;6145509;23;20391;-70
2023/04/09 09:33:47;;;;;;;6.50;5.30;;;12.20;54.30;;;;;;6147333;23;20422;-71
2023/04/09 09:36:13;;;;;;;8.30;6.20;;;12.30;53.20;;;;;;6148134;23;20406;-69
2023/04/09 09:38:53;;;;;;;7.60;5.80;;;12.30;51.80;;;;;;6147293;23;20371;-70
2023/04/09 09:41:19;;;;;;;8.13;5.97;;;12.30;51.90;;;;;;6110219;23;20517;-70
2023/04/09 09:43:46;;;;;;;8.83;6.23;;;12.50;51.80;;;;;;6123745;23;20678;-70
2023/04/09 09:46:13;;;;;;;8.47;6.50;;;12.50;51.70;;;;;;6124090;23;20768;-71
2023/04/09 09:48:39;;;;;;;9.50;7.03;;;12.50;51.50;;;;;;6151205;23;20372;-71
2023/04/09 09:51:10;;;;;;;6.87;6.17;;;12.60;51.50;;;;;;6122322;23;20791;-70
2023/04/09 09:53:36;;;;;;;9.90;7.20;;;12.70;51.40;;;;;;6089490;23;20152;-70
2023/04/09 09:56:07;;;;;;;9.23;6.57;;;12.70;51.50;;;;;;6088468;23;20814;-71
2023/04/09 09:59:06;;;;;;;7.37;6.13;;;12.80;51.30;;;;;;6123281;23;20441;-72
2023/04/09 10:01:34;;;;;;;6.47;5.13;;;12.70;51.70;;;;;;6029662;23;20439;-70
2023/04/09 10:04:01;;;;;;;8.27;6.30;;;12.70;52.10;;;;;;6090844;23;20441;-71
2023/04/09 10:06:29;;;;;;;8.00;6.67;;;12.80;50.90;;;;;;6124835;23;20435;-71
2023/04/09 10:08:57;;;;;;;8.20;6.50;;;12.90;50.20;;;;;;6090752;23;20383;-71
2023/04/09 10:11:23;;;;;;;8.10;6.10;;;12.90;50.20;;;;;;6114029;23;20403;-71
2023/04/09 10:13:57;;;;;;;7.10;6.13;;;12.90;50.70;;;;;;6149886;23;20380;-73
2023/04/09 10:16:25;;;;;;;9.50;7.40;;;13.00;50.80;;;;;;6089909;23;20435;-70
2023/04/09 10:18:54;;;;;;;9.23;7.03;;;13.00;50.10;;;;;;6111956;23;20376;-70
2023/04/09 10:21:40;;;;;;;6.80;6.00;;;13.10;50.60;;;;;;6122569;23;20482;-69
2023/04/09 10:24:08;;;;;;;10.70;7.60;;;13.20;50.50;;;;;;6110139;23;20386;-71
2023/04/09 10:26:35;;;;;;;10.27;7.40;;;13.40;50.10;;;;;;6148432;23;20378;-70
2023/04/09 10:29:15;;;;;;;9.27;7.97;;;13.60;49.60;;;;;;6125092;23;20376;-71
2023/04/09 10:32:01;;;;;;;9.90;7.30;;;13.70;50.00;;;;;;6143796;23;20418;-69
2023/04/09 10:34:27;;;;;;;7.80;6.47;;;13.90;49.50;;;;;;6146716;23;20525;-73
2023/04/09 10:36:58;;;;;;;11.17;7.37;;;14.00;49.00;;;;;;6146940;23;20372;-71
2023/04/09 10:39:29;;;;;;;10.80;8.00;;;13.90;48.60;;;;;;6147325;23;20134;-69
2023/04/09 10:41:56;;;;;;;9.00;7.30;;;13.90;48.30;;;;;;6147467;23;20425;-69
2023/04/09 10:44:27;;;;;;;8.70;6.73;;;14.00;48.00;;;;;;6149145;23;20380;-72
2023/04/09 10:46:56;;;;;;;8.93;7.97;;;14.00;48.00;;;;;;6149832;23;20374;-69
2023/04/09 10:49:23;;;;;;;7.87;6.47;;;14.00;48.30;;;;;;6151790;23;20433;-70
2023/04/09 10:52:03;;;;;;;10.33;8.13;;;14.00;48.70;;;;;;6112089;23;20831;-71
2023/04/09 10:54:32;;;;;;;8.70;7.23;;;14.10;47.90;;;;;;6116481;23;20387;-70
2023/04/09 10:57:06;;;;;;;8.00;6.97;;;14.20;47.90;;;;;;6147218;23;20618;-70
2023/04/09 10:59:41;;;;;;;9.60;7.40;;;14.40;48.00;;;;;;6149181;23;20380;-70
2023/04/09 11:02:12;;;;;;;7.67;5.27;;;14.60;47.30;;;;;;6116887;23;20411;-70
2023/04/09 11:05:06;;;;;;;9.10;7.97;;;14.60;47.70;;;;;;6149623;23;20368;-72
2023/04/09 11:07:36;;;;;;;10.30;7.50;;;14.80;47.40;;;;;;6151376;23;20368;-69
2023/04/09 11:10:01;;;;;;;8.30;6.87;;;14.80;46.50;;;;;;6150615;23;20368;-70
2023/04/09 11:12:28;;;;;;;7.47;5.83;;;14.60;47.00;;;;;;6124468;23;20454;-72
2023/04/09 11:14:54;;;;;;;9.33;8.33;;;14.60;47.60;;;;;;6091939;23;20391;-71
2023/04/09 11:17:20;;;;;;;7.53;5.60;;;14.60;47.60;;;;;;6113808;23;20152;-72
2023/04/09 11:19:46;;;;;;;7.73;6.90;;;14.70;47.80;;;;;;6115987;23;20552;-71
2023/04/09 11:22:12;;;;;;;6.70;6.00;;;14.90;46.80;;;;;;6149561;23;20160;-70
2023/04/09 11:24:45;;;;;;;9.13;7.43;;;14.90;45.60;;;;;;6091023;23;20391;-72
2023/04/09 11:27:11;;;;;;;9.33;6.40;;;14.80;45.40;;;;;;6092145;23;20144;-71
2023/04/09 11:29:37;;;;;;;10.07;8.00;;;14.90;45.90;;;;;;6114649;23;20380;-72
2023/04/09 11:32:04;;;;;;;9.30;7.73;;;15.10;45.40;;;;;;6115397;23;20427;-71
2023/04/09 11:34:33;;;;;;;11.47;8.63;;;15.20;45.60;;;;;;6115256;23;20842;-74
2023/04/09 11:37:05;;;;;;;7.80;6.10;;;15.30;45.40;;;;;;6128632;23;20344;-70
2023/04/09 11:39:31;;;;;;;11.10;8.07;;;15.30;46.30;;;;;;6127029;23;20638;-71
2023/04/09 11:41:57;;;;;;;8.83;7.93;;;15.50;46.40;;;;;;6092452;23;20482;-69
2023/04/09 11:44:22;;;;;;;8.93;7.70;;;15.40;45.50;;;;;;6124716;23;20140;-71
2023/04/09 11:46:49;;;;;;;8.63;7.57;;;15.30;45.70;;;;;;6092104;23;20203;-74
2023/04/09 11:49:16;;;;;;;7.90;6.70;;;15.30;45.80;;;;;;6067306;23;20152;-71
2023/04/09 11:51:42;;;;;;;8.23;6.97;;;15.20;45.10;;;;;;6124832;23;20406;-74
2023/04/09 11:54:07;;;;;;;8.40;6.53;;;15.10;45.40;;;;;;6124778;23;20379;-71
2023/04/09 11:56:35;;;;;;;7.37;6.47;;;15.10;45.40;;;;;;6125812;23;20411;-71
2023/04/09 11:59:02;;;;;;;9.30;7.47;;;15.10;45.70;;;;;;6090672;23;20214;-72
2023/04/09 12:01:32;;;;;;;7.57;6.40;;;15.00;45.50;;;;;;6088942;23;20864;-71
2023/04/09 12:03:58;;;;;;;9.73;7.60;;;15.00;45.70;;;;;;6122177;23;20376;-71
2023/04/09 12:06:26;;;;;;;7.67;5.93;;;15.10;45.40;;;;;;6148743;23;20367;-71
2023/04/09 12:08:53;;;;;;;10.13;8.00;;;15.00;45.30;;;;;;6111419;23;20375;-71
2023/04/09 12:11:19;;;;;;;7.70;6.30;;;15.10;45.70;;;;;;6148195;23;20391;-71
2023/04/09 12:13:45;;;;;;;9.43;7.37;;;15.10;46.20;;;;;;6121560;23;20372;-72
2023/04/09 12:16:12;;;;;;;9.23;6.60;;;15.10;45.90;;;;;;6089567;23;20379;-72
2023/04/09 12:18:38;;;;;;;8.60;7.70;;;15.20;45.30;;;;;;6113916;23;20371;-70
2023/04/09 12:21:05;;;;;;;6.40;5.80;;;15.40;44.90;;;;;;6123868;23;20519;-70
2023/04/09 12:23:31;;;;;;;6.20;5.30;;;15.40;44.60;;;;;;6113648;23;20444;-70
2023/04/09 12:26:00;;;;;;;7.83;6.97;;;15.30;45.20;;;;;;6123035;23;20384;-69
2023/04/09 12:28:27;;;;;;;8.40;7.07;;;15.20;45.50;;;;;;6150871;23;20761;-71
2023/04/09 12:30:53;;;;;;;8.10;7.27;;;15.30;45.20;;;;;;6149422;23;20645;-74
2023/04/09 12:33:20;;;;;;;7.73;6.50;;;15.40;44.80;;;;;;6150935;23;20395;-74
2023/04/09 12:35:47;;;;;;;6.90;6.03;;;15.40;44.80;;;;;;6092144;23;20376;-71
2023/04/09 12:38:12;;;;;;;6.63;5.90;;;15.40;45.00;;;;;;6150894;23;20394;-69
2023/04/09 12:40:38;;;;;;;7.70;6.13;;;15.40;44.60;;;;;;6116024;23;20171;-73
2023/04/09 12:43:04;;;;;;;7.40;5.70;;;15.30;44.60;;;;;;6091819;23;20191;-71
2023/04/09 12:45:30;;;;;;;7.63;6.70;;;15.20;44.50;;;;;;6124670;23;20159;-71
2023/04/09 12:47:56;;;;;;;7.77;6.43;;;15.20;44.70;;;;;;6115698;23;20167;-69